sensor_id;sensor_type;location;lat;lon;timestamp;P1;durP1;ratioP1;P2;durP2;ratioP2
37409;SDS011;23275;48.914;12.566;2022-11-04T00:01:18;10.55;;;6.40;;
37409;SDS011;23275;48.914;12.566;2022-11-04T00:03:44;9.32;;;6.43;;
37409;SDS011;23275;48.914;12.566;2022-11-04T00:06:10;13.20;;;6.50;;
37409;SDS011;23275;48.914;12.566;2022-11-04T00:08:36;13.15;;;6.65;;
37409;SDS011;23275;48.914;12.566;2022-11-04T00:11:02;9.75;;;6.40;;
37409;SDS011;23275;48.914;12.566;2022-11-04T00:13:46;10.15;;;6.88;;
37409;SDS011;23275;48.914;12.566;2022-11-04T00:16:12;10.88;;;6.30;;
37409;SDS011;23275;48.914;12.566;2022-11-04T00:18:58;10.73;;;6.70;;
37409;SDS011;23275;48.914;12.566;2022-11-04T00:21:25;14.13;;;7.13;;
37409;SDS011;23275;48.914;12.566;2022-11-04T00:24:13;15.23;;;7.22;;
37409;SDS011;23275;48.914;12.566;2022-11-04T00:26:57;11.68;;;7.65;;
37409;SDS011;23275;48.914;12.566;2022-11-04T00:29:41;12.25;;;7.45;;
37409;SDS011;23275;48.914;12.566;2022-11-04T00:32:07;11.13;;;7.38;;
37409;SDS011;23275;48.914;12.566;2022-11-04T00:34:52;13.18;;;7.20;;
37409;SDS011;23275;48.914;12.566;2022-11-04T00:37:17;12.25;;;7.45;;
37409;SDS011;23275;48.914;12.566;2022-11-04T00:39:43;12.88;;;7.30;;
37409;SDS011;23275;48.914;12.566;2022-11-04T00:42:08;12.55;;;7.53;;
37409;SDS011;23275;48.914;12.566;2022-11-04T00:44:34;12.23;;;8.20;;
37409;SDS011;23275;48.914;12.566;2022-11-04T00:46:59;13.88;;;7.93;;
37409;SDS011;23275;48.914;12.566;2022-11-04T00:49:25;14.13;;;7.57;;
37409;SDS011;23275;48.914;12.566;2022-11-04T00:51:51;13.77;;;7.80;;
37409;SDS011;23275;48.914;12.566;2022-11-04T00:54:16;15.40;;;7.88;;
37409;SDS011;23275;48.914;12.566;2022-11-04T00:56:42;14.63;;;8.20;;
37409;SDS011;23275;48.914;12.566;2022-11-04T00:59:07;16.48;;;7.65;;
37409;SDS011;23275;48.914;12.566;2022-11-04T01:01:34;14.07;;;7.80;;
37409;SDS011;23275;48.914;12.566;2022-11-04T01:04:00;16.45;;;7.72;;
37409;SDS011;23275;48.914;12.566;2022-11-04T01:06:25;13.00;;;8.18;;
37409;SDS011;23275;48.914;12.566;2022-11-04T01:08:55;12.00;;;8.32;;
37409;SDS011;23275;48.914;12.566;2022-11-04T01:11:22;13.25;;;8.38;;
37409;SDS011;23275;48.914;12.566;2022-11-04T01:13:51;14.93;;;7.95;;
37409;SDS011;23275;48.914;12.566;2022-11-04T01:16:16;16.20;;;7.75;;
37409;SDS011;23275;48.914;12.566;2022-11-04T01:18:42;12.98;;;7.80;;
37409;SDS011;23275;48.914;12.566;2022-11-04T01:21:09;17.23;;;8.15;;
37409;SDS011;23275;48.914;12.566;2022-11-04T01:23:37;12.85;;;8.70;;
37409;SDS011;23275;48.914;12.566;2022-11-04T01:26:11;14.57;;;9.02;;
37409;SDS011;23275;48.914;12.566;2022-11-04T01:28:38;13.60;;;9.23;;
37409;SDS011;23275;48.914;12.566;2022-11-04T01:31:05;14.98;;;9.65;;
37409;SDS011;23275;48.914;12.566;2022-11-04T01:33:34;15.57;;;9.25;;
37409;SDS011;23275;48.914;12.566;2022-11-04T01:36:01;16.45;;;9.20;;
37409;SDS011;23275;48.914;12.566;2022-11-04T01:38:27;15.20;;;9.70;;
37409;SDS011;23275;48.914;12.566;2022-11-04T01:40:53;16.90;;;9.20;;
37409;SDS011;23275;48.914;12.566;2022-11-04T01:43:19;12.82;;;8.98;;
37409;SDS011;23275;48.914;12.566;2022-11-04T01:45:51;13.55;;;10.18;;
37409;SDS011;23275;48.914;12.566;2022-11-04T01:48:21;18.25;;;9.63;;
37409;SDS011;23275;48.914;12.566;2022-11-04T01:50:56;17.92;;;10.40;;
37409;SDS011;23275;48.914;12.566;2022-11-04T01:53:27;15.80;;;10.35;;
37409;SDS011;23275;48.914;12.566;2022-11-04T01:55:57;20.95;;;10.57;;
37409;SDS011;23275;48.914;12.566;2022-11-04T01:58:27;16.00;;;9.98;;
37409;SDS011;23275;48.914;12.566;2022-11-04T02:00:56;18.63;;;11.20;;
37409;SDS011;23275;48.914;12.566;2022-11-04T02:03:28;17.05;;;10.20;;
37409;SDS011;23275;48.914;12.566;2022-11-04T02:06:02;19.27;;;11.38;;
37409;SDS011;23275;48.914;12.566;2022-11-04T02:08:29;17.58;;;11.38;;
37409;SDS011;23275;48.914;12.566;2022-11-04T02:10:57;18.00;;;11.25;;
37409;SDS011;23275;48.914;12.566;2022-11-04T02:13:24;15.93;;;11.27;;
37409;SDS011;23275;48.914;12.566;2022-11-04T02:15:56;16.58;;;12.60;;
37409;SDS011;23275;48.914;12.566;2022-11-04T02:27:17;21.10;;;13.80;;
37409;SDS011;23275;48.914;12.566;2022-11-04T02:30:03;19.55;;;15.30;;
37409;SDS011;23275;48.914;12.566;2022-11-04T02:32:41;19.15;;;14.88;;
37409;SDS011;23275;48.914;12.566;2022-11-04T02:38:30;20.27;;;14.35;;
37409;SDS011;23275;48.914;12.566;2022-11-04T02:41:40;22.63;;;15.85;;
37409;SDS011;23275;48.914;12.566;2022-11-04T02:46:48;20.75;;;15.15;;
37409;SDS011;23275;48.914;12.566;2022-11-04T02:49:40;24.60;;;15.90;;
37409;SDS011;23275;48.914;12.566;2022-11-04T02:52:29;21.15;;;15.38;;
37409;SDS011;23275;48.914;12.566;2022-11-04T02:55:26;22.10;;;15.48;;
37409;SDS011;23275;48.914;12.566;2022-11-04T02:57:56;19.70;;;14.43;;
37409;SDS011;23275;48.914;12.566;2022-11-04T03:00:25;20.30;;;14.33;;
37409;SDS011;23275;48.914;12.566;2022-11-04T03:02:55;21.85;;;16.20;;
37409;SDS011;23275;48.914;12.566;2022-11-04T03:05:25;20.73;;;14.65;;
37409;SDS011;23275;48.914;12.566;2022-11-04T03:07:55;21.30;;;14.70;;
37409;SDS011;23275;48.914;12.566;2022-11-04T03:10:29;20.40;;;15.02;;
37409;SDS011;23275;48.914;12.566;2022-11-04T03:13:37;20.77;;;15.77;;
37409;SDS011;23275;48.914;12.566;2022-11-04T03:16:05;23.23;;;15.38;;
37409;SDS011;23275;48.914;12.566;2022-11-04T03:18:36;21.80;;;15.65;;
37409;SDS011;23275;48.914;12.566;2022-11-04T03:21:40;19.30;;;14.02;;
37409;SDS011;23275;48.914;12.566;2022-11-04T03:24:11;19.27;;;14.77;;
37409;SDS011;23275;48.914;12.566;2022-11-04T03:26:42;21.27;;;14.73;;
37409;SDS011;23275;48.914;12.566;2022-11-04T03:29:16;21.45;;;14.35;;
37409;SDS011;23275;48.914;12.566;2022-11-04T03:34:57;18.65;;;14.50;;
37409;SDS011;23275;48.914;12.566;2022-11-04T03:37:23;19.17;;;14.35;;
37409;SDS011;23275;48.914;12.566;2022-11-04T03:39:48;18.55;;;13.20;;
37409;SDS011;23275;48.914;12.566;2022-11-04T03:42:14;18.90;;;13.40;;
37409;SDS011;23275;48.914;12.566;2022-11-04T03:44:46;23.77;;;13.77;;
37409;SDS011;23275;48.914;12.566;2022-11-04T03:47:16;17.90;;;13.88;;
37409;SDS011;23275;48.914;12.566;2022-11-04T03:49:44;19.48;;;14.40;;
37409;SDS011;23275;48.914;12.566;2022-11-04T03:52:14;19.88;;;14.43;;
37409;SDS011;23275;48.914;12.566;2022-11-04T03:54:41;17.58;;;13.55;;
37409;SDS011;23275;48.914;12.566;2022-11-04T03:59:43;18.67;;;13.50;;
37409;SDS011;23275;48.914;12.566;2022-11-04T04:02:23;21.15;;;14.48;;
37409;SDS011;23275;48.914;12.566;2022-11-04T04:05:16;18.10;;;14.13;;
37409;SDS011;23275;48.914;12.566;2022-11-04T04:07:47;17.25;;;13.75;;
37409;SDS011;23275;48.914;12.566;2022-11-04T04:10:31;19.52;;;13.35;;
37409;SDS011;23275;48.914;12.566;2022-11-04T04:13:06;21.02;;;13.75;;
37409;SDS011;23275;48.914;12.566;2022-11-04T04:15:45;20.05;;;13.27;;
37409;SDS011;23275;48.914;12.566;2022-11-04T04:18:15;17.13;;;13.15;;
37409;SDS011;23275;48.914;12.566;2022-11-04T04:20:45;18.85;;;14.48;;
37409;SDS011;23275;48.914;12.566;2022-11-04T04:23:15;21.17;;;14.80;;
37409;SDS011;23275;48.914;12.566;2022-11-04T04:26:02;19.67;;;14.20;;
37409;SDS011;23275;48.914;12.566;2022-11-04T04:28:49;19.58;;;12.73;;
37409;SDS011;23275;48.914;12.566;2022-11-04T04:31:17;18.20;;;14.13;;
37409;SDS011;23275;48.914;12.566;2022-11-04T04:34:04;19.20;;;13.98;;
37409;SDS011;23275;48.914;12.566;2022-11-04T04:36:30;18.35;;;12.15;;
37409;SDS011;23275;48.914;12.566;2022-11-04T04:39:03;17.10;;;11.95;;
37409;SDS011;23275;48.914;12.566;2022-11-04T04:41:49;15.57;;;12.00;;
37409;SDS011;23275;48.914;12.566;2022-11-04T04:44:36;19.90;;;13.30;;
37409;SDS011;23275;48.914;12.566;2022-11-04T04:47:22;17.05;;;12.15;;
37409;SDS011;23275;48.914;12.566;2022-11-04T04:52:16;18.25;;;11.70;;
37409;SDS011;23275;48.914;12.566;2022-11-04T04:54:42;17.58;;;12.52;;
37409;SDS011;23275;48.914;12.566;2022-11-04T04:57:11;19.67;;;13.27;;
37409;SDS011;23275;48.914;12.566;2022-11-04T04:59:37;20.17;;;13.07;;
37409;SDS011;23275;48.914;12.566;2022-11-04T05:02:02;15.93;;;12.75;;
37409;SDS011;23275;48.914;12.566;2022-11-04T05:04:28;18.52;;;12.57;;
37409;SDS011;23275;48.914;12.566;2022-11-04T05:06:54;17.55;;;13.05;;
37409;SDS011;23275;48.914;12.566;2022-11-04T05:09:19;17.85;;;12.93;;
37409;SDS011;23275;48.914;12.566;2022-11-04T05:11:45;19.27;;;12.80;;
37409;SDS011;23275;48.914;12.566;2022-11-04T05:14:10;18.80;;;13.23;;
37409;SDS011;23275;48.914;12.566;2022-11-04T05:16:36;18.27;;;11.98;;
37409;SDS011;23275;48.914;12.566;2022-11-04T05:19:01;18.48;;;13.27;;
37409;SDS011;23275;48.914;12.566;2022-11-04T05:21:27;17.42;;;12.98;;
37409;SDS011;23275;48.914;12.566;2022-11-04T05:23:53;17.65;;;12.98;;
37409;SDS011;23275;48.914;12.566;2022-11-04T05:26:19;16.65;;;12.40;;
37409;SDS011;23275;48.914;12.566;2022-11-04T05:28:45;16.50;;;12.85;;
37409;SDS011;23275;48.914;12.566;2022-11-04T05:31:11;16.92;;;11.95;;
37409;SDS011;23275;48.914;12.566;2022-11-04T05:33:36;17.20;;;13.40;;
37409;SDS011;23275;48.914;12.566;2022-11-04T05:36:09;21.27;;;12.82;;
37409;SDS011;23275;48.914;12.566;2022-11-04T05:38:37;16.48;;;13.05;;
37409;SDS011;23275;48.914;12.566;2022-11-04T05:41:03;17.58;;;12.85;;
37409;SDS011;23275;48.914;12.566;2022-11-04T05:43:31;17.73;;;12.85;;
37409;SDS011;23275;48.914;12.566;2022-11-04T05:45:57;18.60;;;12.63;;
37409;SDS011;23275;48.914;12.566;2022-11-04T05:48:24;17.55;;;12.73;;
37409;SDS011;23275;48.914;12.566;2022-11-04T05:50:50;16.80;;;12.63;;
37409;SDS011;23275;48.914;12.566;2022-11-04T05:53:15;17.10;;;12.13;;
37409;SDS011;23275;48.914;12.566;2022-11-04T05:55:41;18.55;;;13.75;;
37409;SDS011;23275;48.914;12.566;2022-11-04T05:58:06;17.23;;;13.20;;
37409;SDS011;23275;48.914;12.566;2022-11-04T06:00:32;18.27;;;12.65;;
37409;SDS011;23275;48.914;12.566;2022-11-04T06:02:58;20.67;;;12.93;;
37409;SDS011;23275;48.914;12.566;2022-11-04T06:05:23;18.70;;;12.43;;
37409;SDS011;23275;48.914;12.566;2022-11-04T06:07:50;18.48;;;13.23;;
37409;SDS011;23275;48.914;12.566;2022-11-04T06:10:17;21.17;;;13.02;;
37409;SDS011;23275;48.914;12.566;2022-11-04T06:12:42;17.10;;;12.18;;
37409;SDS011;23275;48.914;12.566;2022-11-04T06:15:08;19.50;;;13.00;;
37409;SDS011;23275;48.914;12.566;2022-11-04T06:17:34;20.08;;;13.73;;
37409;SDS011;23275;48.914;12.566;2022-11-04T06:20:00;19.48;;;12.88;;
37409;SDS011;23275;48.914;12.566;2022-11-04T06:22:25;18.08;;;12.50;;
37409;SDS011;23275;48.914;12.566;2022-11-04T06:24:51;17.40;;;12.27;;
37409;SDS011;23275;48.914;12.566;2022-11-04T06:27:16;17.73;;;12.38;;
37409;SDS011;23275;48.914;12.566;2022-11-04T06:29:42;15.05;;;11.15;;
37409;SDS011;23275;48.914;12.566;2022-11-04T06:32:12;19.42;;;11.32;;
37409;SDS011;23275;48.914;12.566;2022-11-04T06:34:39;21.05;;;12.43;;
37409;SDS011;23275;48.914;12.566;2022-11-04T06:37:06;18.80;;;12.07;;
37409;SDS011;23275;48.914;12.566;2022-11-04T06:39:33;18.73;;;11.38;;
37409;SDS011;23275;48.914;12.566;2022-11-04T06:41:58;19.40;;;12.50;;
37409;SDS011;23275;48.914;12.566;2022-11-04T06:44:24;18.17;;;13.00;;
37409;SDS011;23275;48.914;12.566;2022-11-04T06:46:49;17.45;;;12.13;;
37409;SDS011;23275;48.914;12.566;2022-11-04T06:49:16;18.17;;;11.40;;
37409;SDS011;23275;48.914;12.566;2022-11-04T06:51:46;20.50;;;11.70;;
37409;SDS011;23275;48.914;12.566;2022-11-04T06:54:13;16.80;;;12.32;;
37409;SDS011;23275;48.914;12.566;2022-11-04T06:56:39;18.50;;;12.10;;
37409;SDS011;23275;48.914;12.566;2022-11-04T06:59:05;18.83;;;11.80;;
37409;SDS011;23275;48.914;12.566;2022-11-04T07:01:32;18.67;;;11.95;;
37409;SDS011;23275;48.914;12.566;2022-11-04T07:04:00;19.40;;;12.20;;
37409;SDS011;23275;48.914;12.566;2022-11-04T07:06:29;17.98;;;12.07;;
37409;SDS011;23275;48.914;12.566;2022-11-04T07:08:56;18.35;;;11.90;;
37409;SDS011;23275;48.914;12.566;2022-11-04T07:11:23;22.48;;;12.60;;
37409;SDS011;23275;48.914;12.566;2022-11-04T07:13:50;22.60;;;13.45;;
37409;SDS011;23275;48.914;12.566;2022-11-04T07:16:16;19.30;;;11.85;;
37409;SDS011;23275;48.914;12.566;2022-11-04T07:18:43;19.13;;;11.98;;
37409;SDS011;23275;48.914;12.566;2022-11-04T07:21:09;22.08;;;11.90;;
37409;SDS011;23275;48.914;12.566;2022-11-04T07:23:36;22.85;;;12.27;;
37409;SDS011;23275;48.914;12.566;2022-11-04T07:26:03;17.85;;;11.85;;
37409;SDS011;23275;48.914;12.566;2022-11-04T07:28:31;20.90;;;11.25;;
37409;SDS011;23275;48.914;12.566;2022-11-04T07:30:57;18.60;;;11.55;;
37409;SDS011;23275;48.914;12.566;2022-11-04T07:33:24;18.80;;;11.82;;
37409;SDS011;23275;48.914;12.566;2022-11-04T07:35:51;16.88;;;10.75;;
37409;SDS011;23275;48.914;12.566;2022-11-04T07:38:18;17.98;;;10.80;;
37409;SDS011;23275;48.914;12.566;2022-11-04T07:40:47;16.88;;;9.95;;
37409;SDS011;23275;48.914;12.566;2022-11-04T07:43:13;14.02;;;8.93;;
37409;SDS011;23275;48.914;12.566;2022-11-04T07:45:39;13.35;;;7.97;;
37409;SDS011;23275;48.914;12.566;2022-11-04T07:48:05;10.50;;;6.40;;
37409;SDS011;23275;48.914;12.566;2022-11-04T07:50:31;14.43;;;6.43;;
37409;SDS011;23275;48.914;12.566;2022-11-04T07:52:57;9.82;;;5.90;;
37409;SDS011;23275;48.914;12.566;2022-11-04T07:55:23;10.85;;;5.68;;
37409;SDS011;23275;48.914;12.566;2022-11-04T07:57:49;8.23;;;4.93;;
37409;SDS011;23275;48.914;12.566;2022-11-04T08:00:15;7.65;;;5.05;;
37409;SDS011;23275;48.914;12.566;2022-11-04T08:02:41;9.48;;;4.57;;
37409;SDS011;23275;48.914;12.566;2022-11-04T08:05:10;5.60;;;3.47;;
37409;SDS011;23275;48.914;12.566;2022-11-04T08:07:39;4.65;;;3.15;;
37409;SDS011;23275;48.914;12.566;2022-11-04T08:10:05;5.40;;;2.80;;
37409;SDS011;23275;48.914;12.566;2022-11-04T08:12:31;4.30;;;2.38;;
37409;SDS011;23275;48.914;12.566;2022-11-04T08:15:00;5.15;;;2.45;;
37409;SDS011;23275;48.914;12.566;2022-11-04T08:17:25;5.85;;;2.70;;
37409;SDS011;23275;48.914;12.566;2022-11-04T08:19:51;5.38;;;2.72;;
37409;SDS011;23275;48.914;12.566;2022-11-04T08:22:17;5.25;;;2.10;;
37409;SDS011;23275;48.914;12.566;2022-11-04T08:24:42;4.95;;;2.40;;
37409;SDS011;23275;48.914;12.566;2022-11-04T08:27:11;5.13;;;1.92;;
37409;SDS011;23275;48.914;12.566;2022-11-04T08:29:37;3.80;;;1.77;;
37409;SDS011;23275;48.914;12.566;2022-11-04T08:32:02;7.05;;;1.83;;
37409;SDS011;23275;48.914;12.566;2022-11-04T08:34:29;4.95;;;1.50;;
37409;SDS011;23275;48.914;12.566;2022-11-04T08:36:55;4.40;;;1.67;;
37409;SDS011;23275;48.914;12.566;2022-11-04T08:39:21;4.50;;;2.47;;
37409;SDS011;23275;48.914;12.566;2022-11-04T08:41:48;5.20;;;3.15;;
37409;SDS011;23275;48.914;12.566;2022-11-04T08:44:14;4.47;;;2.55;;
37409;SDS011;23275;48.914;12.566;2022-11-04T08:46:41;5.80;;;3.22;;
37409;SDS011;23275;48.914;12.566;2022-11-04T08:49:08;5.82;;;2.85;;
37409;SDS011;23275;48.914;12.566;2022-11-04T08:51:35;6.65;;;3.63;;
37409;SDS011;23275;48.914;12.566;2022-11-04T08:54:02;10.68;;;5.18;;
37409;SDS011;23275;48.914;12.566;2022-11-04T08:56:29;5.57;;;3.28;;
37409;SDS011;23275;48.914;12.566;2022-11-04T08:58:57;7.00;;;3.58;;
37409;SDS011;23275;48.914;12.566;2022-11-04T09:01:24;7.53;;;3.30;;
37409;SDS011;23275;48.914;12.566;2022-11-04T09:03:51;11.38;;;4.90;;
37409;SDS011;23275;48.914;12.566;2022-11-04T09:06:20;11.60;;;4.82;;
37409;SDS011;23275;48.914;12.566;2022-11-04T09:08:48;9.93;;;4.32;;
37409;SDS011;23275;48.914;12.566;2022-11-04T09:11:14;9.95;;;4.53;;
37409;SDS011;23275;48.914;12.566;2022-11-04T09:13:40;19.98;;;6.40;;
37409;SDS011;23275;48.914;12.566;2022-11-04T09:16:07;21.30;;;7.30;;
37409;SDS011;23275;48.914;12.566;2022-11-04T09:18:34;16.95;;;7.05;;
37409;SDS011;23275;48.914;12.566;2022-11-04T09:21:00;14.73;;;5.18;;
37409;SDS011;23275;48.914;12.566;2022-11-04T09:23:26;11.35;;;4.10;;
37409;SDS011;23275;48.914;12.566;2022-11-04T09:25:52;9.90;;;4.20;;
37409;SDS011;23275;48.914;12.566;2022-11-04T09:28:19;11.25;;;3.67;;
37409;SDS011;23275;48.914;12.566;2022-11-04T09:30:45;12.82;;;4.40;;
37409;SDS011;23275;48.914;12.566;2022-11-04T09:33:10;22.00;;;7.88;;
37409;SDS011;23275;48.914;12.566;2022-11-04T09:35:36;15.63;;;5.68;;
37409;SDS011;23275;48.914;12.566;2022-11-04T09:38:02;7.57;;;2.95;;
37409;SDS011;23275;48.914;12.566;2022-11-04T09:40:28;8.30;;;3.40;;
37409;SDS011;23275;48.914;12.566;2022-11-04T09:45:31;4.95;;;2.10;;
37409;SDS011;23275;48.914;12.566;2022-11-04T09:47:59;8.25;;;2.65;;
37409;SDS011;23275;48.914;12.566;2022-11-04T09:50:31;8.18;;;2.00;;
37409;SDS011;23275;48.914;12.566;2022-11-04T09:53:16;5.25;;;1.70;;
37409;SDS011;23275;48.914;12.566;2022-11-04T09:55:51;4.05;;;1.40;;
37409;SDS011;23275;48.914;12.566;2022-11-04T09:58:18;4.80;;;1.70;;
37409;SDS011;23275;48.914;12.566;2022-11-04T10:00:48;3.42;;;1.45;;
37409;SDS011;23275;48.914;12.566;2022-11-04T10:11:19;6.68;;;2.05;;
37409;SDS011;23275;48.914;12.566;2022-11-04T10:14:03;5.63;;;1.98;;
37409;SDS011;23275;48.914;12.566;2022-11-04T10:25:15;5.82;;;1.98;;
37409;SDS011;23275;48.914;12.566;2022-11-04T10:27:47;4.45;;;1.73;;
37409;SDS011;23275;48.914;12.566;2022-11-04T10:30:17;5.03;;;1.90;;
37409;SDS011;23275;48.914;12.566;2022-11-04T10:32:54;6.80;;;2.22;;
37409;SDS011;23275;48.914;12.566;2022-11-04T10:35:39;7.72;;;1.85;;
37409;SDS011;23275;48.914;12.566;2022-11-04T10:40:57;4.40;;;1.40;;
37409;SDS011;23275;48.914;12.566;2022-11-04T10:43:36;5.95;;;2.00;;
37409;SDS011;23275;48.914;12.566;2022-11-04T10:46:08;6.22;;;2.00;;
37409;SDS011;23275;48.914;12.566;2022-11-04T10:51:36;3.40;;;2.42;;
37409;SDS011;23275;48.914;12.566;2022-11-04T10:54:04;7.20;;;2.15;;
37409;SDS011;23275;48.914;12.566;2022-11-04T10:56:42;5.40;;;2.83;;
37409;SDS011;23275;48.914;12.566;2022-11-04T11:01:54;4.30;;;1.80;;
37409;SDS011;23275;48.914;12.566;2022-11-04T11:06:55;6.57;;;2.05;;
37409;SDS011;23275;48.914;12.566;2022-11-04T11:09:29;15.57;;;3.33;;
37409;SDS011;23275;48.914;12.566;2022-11-04T11:14:37;3.55;;;1.55;;
37409;SDS011;23275;48.914;12.566;2022-11-04T11:19:58;6.97;;;2.78;;
37409;SDS011;23275;48.914;12.566;2022-11-04T11:25:19;5.25;;;2.53;;
37409;SDS011;23275;48.914;12.566;2022-11-04T11:27:49;4.88;;;2.63;;
37409;SDS011;23275;48.914;12.566;2022-11-04T11:30:18;10.85;;;2.42;;
37409;SDS011;23275;48.914;12.566;2022-11-04T11:32:45;3.00;;;1.65;;
37409;SDS011;23275;48.914;12.566;2022-11-04T11:35:17;23.38;;;2.67;;
37409;SDS011;23275;48.914;12.566;2022-11-04T11:37:45;4.45;;;1.48;;
37409;SDS011;23275;48.914;12.566;2022-11-04T11:40:25;4.90;;;1.77;;
37409;SDS011;23275;48.914;12.566;2022-11-04T11:42:53;6.80;;;2.83;;
37409;SDS011;23275;48.914;12.566;2022-11-04T11:45:19;24.90;;;6.97;;
37409;SDS011;23275;48.914;12.566;2022-11-04T11:47:47;9.82;;;4.70;;
37409;SDS011;23275;48.914;12.566;2022-11-04T11:50:19;8.90;;;2.60;;
37409;SDS011;23275;48.914;12.566;2022-11-04T11:56:22;7.60;;;2.00;;
37409;SDS011;23275;48.914;12.566;2022-11-04T11:59:05;4.47;;;1.85;;
37409;SDS011;23275;48.914;12.566;2022-11-04T12:04:18;29.98;;;3.83;;
37409;SDS011;23275;48.914;12.566;2022-11-04T12:18:12;4.55;;;1.02;;
37409;SDS011;23275;48.914;12.566;2022-11-04T12:26:22;4.30;;;0.95;;
37409;SDS011;23275;48.914;12.566;2022-11-04T12:28:52;31.38;;;4.65;;
37409;SDS011;23275;48.914;12.566;2022-11-04T12:34:50;5.00;;;1.13;;
37409;SDS011;23275;48.914;12.566;2022-11-04T12:37:46;5.43;;;1.10;;
37409;SDS011;23275;48.914;12.566;2022-11-04T12:43:22;3.75;;;1.00;;
37409;SDS011;23275;48.914;12.566;2022-11-04T12:45:57;2.80;;;0.90;;
37409;SDS011;23275;48.914;12.566;2022-11-04T12:48:40;4.03;;;1.45;;
37409;SDS011;23275;48.914;12.566;2022-11-04T12:54:15;4.28;;;1.10;;
37409;SDS011;23275;48.914;12.566;2022-11-04T12:59:50;3.78;;;1.00;;
37409;SDS011;23275;48.914;12.566;2022-11-04T13:02:39;7.25;;;1.20;;
37409;SDS011;23275;48.914;12.566;2022-11-04T13:07:57;4.03;;;1.58;;
37409;SDS011;23275;48.914;12.566;2022-11-04T13:13:35;5.47;;;1.80;;
37409;SDS011;23275;48.914;12.566;2022-11-04T13:16:05;8.70;;;2.72;;
37409;SDS011;23275;48.914;12.566;2022-11-04T13:18:36;6.05;;;2.85;;
37409;SDS011;23275;48.914;12.566;2022-11-04T13:21:05;8.00;;;3.30;;
37409;SDS011;23275;48.914;12.566;2022-11-04T13:23:37;6.47;;;3.63;;
37409;SDS011;23275;48.914;12.566;2022-11-04T13:26:08;13.13;;;4.30;;
37409;SDS011;23275;48.914;12.566;2022-11-04T13:28:38;15.07;;;4.32;;
37409;SDS011;23275;48.914;12.566;2022-11-04T13:31:10;14.85;;;5.53;;
37409;SDS011;23275;48.914;12.566;2022-11-04T13:39:32;13.52;;;4.57;;
37409;SDS011;23275;48.914;12.566;2022-11-04T13:44:49;11.13;;;4.78;;
37409;SDS011;23275;48.914;12.566;2022-11-04T13:47:21;12.30;;;3.60;;
37409;SDS011;23275;48.914;12.566;2022-11-04T13:49:55;26.20;;;12.63;;
37409;SDS011;23275;48.914;12.566;2022-11-04T13:52:23;9.20;;;4.47;;
37409;SDS011;23275;48.914;12.566;2022-11-04T13:54:53;5.07;;;3.50;;
37409;SDS011;23275;48.914;12.566;2022-11-04T13:57:26;7.55;;;3.03;;
37409;SDS011;23275;48.914;12.566;2022-11-04T14:08:27;5.05;;;2.50;;
37409;SDS011;23275;48.914;12.566;2022-11-04T14:21:00;4.88;;;2.38;;
37409;SDS011;23275;48.914;12.566;2022-11-04T14:23:49;5.30;;;1.95;;
37409;SDS011;23275;48.914;12.566;2022-11-04T14:26:18;7.22;;;1.95;;
37409;SDS011;23275;48.914;12.566;2022-11-04T14:29:06;8.23;;;2.05;;
37409;SDS011;23275;48.914;12.566;2022-11-04T14:31:50;3.45;;;2.00;;
37409;SDS011;23275;48.914;12.566;2022-11-04T14:34:23;5.35;;;1.67;;
37409;SDS011;23275;48.914;12.566;2022-11-04T14:36:54;5.18;;;1.40;;
37409;SDS011;23275;48.914;12.566;2022-11-04T14:39:22;4.82;;;1.85;;
37409;SDS011;23275;48.914;12.566;2022-11-04T14:44:20;10.75;;;4.32;;
37409;SDS011;23275;48.914;12.566;2022-11-04T14:47:18;17.13;;;9.10;;
37409;SDS011;23275;48.914;12.566;2022-11-04T14:52:27;6.22;;;3.65;;
37409;SDS011;23275;48.914;12.566;2022-11-04T14:57:38;7.30;;;3.45;;
37409;SDS011;23275;48.914;12.566;2022-11-04T15:02:59;9.30;;;3.92;;
37409;SDS011;23275;48.914;12.566;2022-11-04T15:05:31;7.75;;;3.58;;
37409;SDS011;23275;48.914;12.566;2022-11-04T15:08:01;8.98;;;3.47;;
37409;SDS011;23275;48.914;12.566;2022-11-04T15:10:50;6.38;;;3.00;;
37409;SDS011;23275;48.914;12.566;2022-11-04T15:13:21;6.50;;;2.78;;
37409;SDS011;23275;48.914;12.566;2022-11-04T15:15:46;9.50;;;4.78;;
37409;SDS011;23275;48.914;12.566;2022-11-04T15:18:15;8.60;;;5.60;;
37409;SDS011;23275;48.914;12.566;2022-11-04T15:20:58;10.18;;;4.35;;
37409;SDS011;23275;48.914;12.566;2022-11-04T15:23:28;16.45;;;10.00;;
37409;SDS011;23275;48.914;12.566;2022-11-04T15:25:55;11.75;;;6.15;;
37409;SDS011;23275;48.914;12.566;2022-11-04T15:28:23;12.95;;;6.78;;
37409;SDS011;23275;48.914;12.566;2022-11-04T15:31:02;14.10;;;7.80;;
37409;SDS011;23275;48.914;12.566;2022-11-04T15:33:29;9.60;;;5.60;;
37409;SDS011;23275;48.914;12.566;2022-11-04T15:36:00;7.75;;;4.75;;
37409;SDS011;23275;48.914;12.566;2022-11-04T15:38:27;18.77;;;8.10;;
37409;SDS011;23275;48.914;12.566;2022-11-04T15:40:53;7.95;;;5.05;;
37409;SDS011;23275;48.914;12.566;2022-11-04T15:43:21;8.15;;;4.55;;
37409;SDS011;23275;48.914;12.566;2022-11-04T15:45:50;10.35;;;4.90;;
37409;SDS011;23275;48.914;12.566;2022-11-04T15:48:35;12.10;;;4.45;;
37409;SDS011;23275;48.914;12.566;2022-11-04T15:51:14;6.90;;;2.70;;
37409;SDS011;23275;48.914;12.566;2022-11-04T15:53:53;7.90;;;3.10;;
37409;SDS011;23275;48.914;12.566;2022-11-04T15:56:32;5.63;;;2.40;;
37409;SDS011;23275;48.914;12.566;2022-11-04T15:59:11;7.20;;;2.35;;
37409;SDS011;23275;48.914;12.566;2022-11-04T16:01:47;7.43;;;2.70;;
37409;SDS011;23275;48.914;12.566;2022-11-04T16:04:15;6.05;;;2.08;;
37409;SDS011;23275;48.914;12.566;2022-11-04T16:06:42;7.90;;;1.90;;
37409;SDS011;23275;48.914;12.566;2022-11-04T16:11:37;5.07;;;2.35;;
37409;SDS011;23275;48.914;12.566;2022-11-04T16:14:21;8.43;;;2.92;;
37409;SDS011;23275;48.914;12.566;2022-11-04T16:16:50;8.75;;;2.58;;
37409;SDS011;23275;48.914;12.566;2022-11-04T16:19:18;6.05;;;2.58;;
37409;SDS011;23275;48.914;12.566;2022-11-04T16:21:47;7.55;;;3.03;;
37409;SDS011;23275;48.914;12.566;2022-11-04T16:24:20;7.90;;;3.33;;
37409;SDS011;23275;48.914;12.566;2022-11-04T16:26:49;9.13;;;4.25;;
37409;SDS011;23275;48.914;12.566;2022-11-04T16:29:25;13.50;;;5.45;;
37409;SDS011;23275;48.914;12.566;2022-11-04T16:34:31;8.88;;;4.80;;
37409;SDS011;23275;48.914;12.566;2022-11-04T16:36:57;10.90;;;5.03;;
37409;SDS011;23275;48.914;12.566;2022-11-04T16:39:23;9.70;;;5.85;;
37409;SDS011;23275;48.914;12.566;2022-11-04T16:41:48;8.70;;;4.75;;
37409;SDS011;23275;48.914;12.566;2022-11-04T16:44:15;7.80;;;4.60;;
37409;SDS011;23275;48.914;12.566;2022-11-04T16:46:45;8.32;;;4.43;;
37409;SDS011;23275;48.914;12.566;2022-11-04T16:49:14;10.93;;;4.95;;
37409;SDS011;23275;48.914;12.566;2022-11-04T16:51:42;9.00;;;5.80;;
37409;SDS011;23275;48.914;12.566;2022-11-04T16:54:08;9.90;;;6.03;;
37409;SDS011;23275;48.914;12.566;2022-11-04T16:56:34;8.98;;;5.30;;
37409;SDS011;23275;48.914;12.566;2022-11-04T16:59:00;10.38;;;5.53;;
37409;SDS011;23275;48.914;12.566;2022-11-04T17:01:25;8.65;;;5.10;;
37409;SDS011;23275;48.914;12.566;2022-11-04T17:03:51;8.95;;;4.68;;
37409;SDS011;23275;48.914;12.566;2022-11-04T17:06:17;7.82;;;4.28;;